sensor_id;sensor_type;location;lat;lon;timestamp;P1;durP1;ratioP1;P2;durP2;ratioP2
3689;SDS011;1861;50.240;8.596;2024-02-26T00:00:18;2.10;;;1.30;;
3689;SDS011;1861;50.240;8.596;2024-02-26T00:02:47;1.87;;;1.17;;
3689;SDS011;1861;50.240;8.596;2024-02-26T00:05:15;2.87;;;1.63;;
3689;SDS011;1861;50.240;8.596;2024-02-26T00:07:44;1.33;;;1.10;;
3689;SDS011;1861;50.240;8.596;2024-02-26T00:10:13;2.70;;;1.50;;
3689;SDS011;1861;50.240;8.596;2024-02-26T00:12:42;2.00;;;1.00;;
3689;SDS011;1861;50.240;8.596;2024-02-26T00:15:10;2.90;;;1.77;;
3689;SDS011;1861;50.240;8.596;2024-02-26T00:17:38;1.47;;;1.13;;
3689;SDS011;1861;50.240;8.596;2024-02-26T00:20:07;0.80;;;0.70;;
3689;SDS011;1861;50.240;8.596;2024-02-26T00:22:37;2.20;;;1.23;;
3689;SDS011;1861;50.240;8.596;2024-02-26T00:25:07;4.70;;;0.90;;
3689;SDS011;1861;50.240;8.596;2024-02-26T00:27:35;1.37;;;0.90;;
3689;SDS011;1861;50.240;8.596;2024-02-26T00:30:04;0.90;;;0.73;;
3689;SDS011;1861;50.240;8.596;2024-02-26T00:32:33;1.47;;;1.37;;
3689;SDS011;1861;50.240;8.596;2024-02-26T00:35:01;1.47;;;0.90;;
3689;SDS011;1861;50.240;8.596;2024-02-26T00:37:29;1.00;;;1.00;;
3689;SDS011;1861;50.240;8.596;2024-02-26T00:39:58;1.00;;;0.80;;
3689;SDS011;1861;50.240;8.596;2024-02-26T00:42:27;1.80;;;0.90;;
3689;SDS011;1861;50.240;8.596;2024-02-26T00:44:55;1.13;;;0.80;;
3689;SDS011;1861;50.240;8.596;2024-02-26T00:47:23;0.90;;;0.90;;
3689;SDS011;1861;50.240;8.596;2024-02-26T00:49:52;0.77;;;0.67;;
3689;SDS011;1861;50.240;8.596;2024-02-26T00:52:20;1.60;;;0.80;;
3689;SDS011;1861;50.240;8.596;2024-02-26T00:54:48;2.20;;;1.20;;
3689;SDS011;1861;50.240;8.596;2024-02-26T00:57:16;1.40;;;1.17;;
3689;SDS011;1861;50.240;8.596;2024-02-26T00:59:45;1.30;;;1.20;;
3689;SDS011;1861;50.240;8.596;2024-02-26T01:02:14;1.17;;;0.70;;
3689;SDS011;1861;50.240;8.596;2024-02-26T01:04:42;1.80;;;1.03;;
3689;SDS011;1861;50.240;8.596;2024-02-26T01:07:11;0.80;;;0.80;;
3689;SDS011;1861;50.240;8.596;2024-02-26T01:09:39;1.60;;;1.00;;
3689;SDS011;1861;50.240;8.596;2024-02-26T01:12:07;2.43;;;0.97;;
3689;SDS011;1861;50.240;8.596;2024-02-26T01:14:36;1.40;;;1.10;;
3689;SDS011;1861;50.240;8.596;2024-02-26T01:17:05;1.43;;;1.20;;
3689;SDS011;1861;50.240;8.596;2024-02-26T01:19:33;4.43;;;1.50;;
3689;SDS011;1861;50.240;8.596;2024-02-26T01:22:01;1.93;;;1.40;;
3689;SDS011;1861;50.240;8.596;2024-02-26T01:24:30;2.47;;;1.10;;
3689;SDS011;1861;50.240;8.596;2024-02-26T01:26:58;1.67;;;1.03;;
3689;SDS011;1861;50.240;8.596;2024-02-26T01:29:26;1.00;;;0.90;;
3689;SDS011;1861;50.240;8.596;2024-02-26T01:31:54;8.50;;;2.93;;
3689;SDS011;1861;50.240;8.596;2024-02-26T01:34:23;10.67;;;5.03;;
3689;SDS011;1861;50.240;8.596;2024-02-26T01:36:52;19.57;;;7.60;;
3689;SDS011;1861;50.240;8.596;2024-02-26T01:39:20;10.87;;;4.90;;
3689;SDS011;1861;50.240;8.596;2024-02-26T01:41:49;13.23;;;6.00;;
3689;SDS011;1861;50.240;8.596;2024-02-26T01:44:18;12.80;;;5.07;;
3689;SDS011;1861;50.240;8.596;2024-02-26T01:46:47;52.37;;;20.00;;
3689;SDS011;1861;50.240;8.596;2024-02-26T01:49:16;12.67;;;6.13;;
3689;SDS011;1861;50.240;8.596;2024-02-26T01:51:45;4.63;;;2.50;;
3689;SDS011;1861;50.240;8.596;2024-02-26T01:54:14;6.87;;;3.13;;
3689;SDS011;1861;50.240;8.596;2024-02-26T01:56:42;18.17;;;9.33;;
3689;SDS011;1861;50.240;8.596;2024-02-26T01:59:10;14.20;;;8.13;;
3689;SDS011;1861;50.240;8.596;2024-02-26T02:01:39;5.20;;;3.20;;
3689;SDS011;1861;50.240;8.596;2024-02-26T02:04:10;1.70;;;1.40;;
3689;SDS011;1861;50.240;8.596;2024-02-26T02:06:39;1.20;;;1.10;;
3689;SDS011;1861;50.240;8.596;2024-02-26T02:09:12;6.00;;;5.00;;
3689;SDS011;1861;50.240;8.596;2024-02-26T02:11:40;3.60;;;3.03;;
3689;SDS011;1861;50.240;8.596;2024-02-26T02:14:10;7.93;;;3.97;;
3689;SDS011;1861;50.240;8.596;2024-02-26T02:16:38;16.87;;;8.90;;
3689;SDS011;1861;50.240;8.596;2024-02-26T02:19:07;30.70;;;14.20;;
3689;SDS011;1861;50.240;8.596;2024-02-26T02:21:36;28.90;;;12.60;;
3689;SDS011;1861;50.240;8.596;2024-02-26T02:24:05;11.10;;;5.70;;
3689;SDS011;1861;50.240;8.596;2024-02-26T02:26:33;4.20;;;2.20;;
3689;SDS011;1861;50.240;8.596;2024-02-26T02:29:02;6.23;;;3.20;;
3689;SDS011;1861;50.240;8.596;2024-02-26T02:31:30;3.17;;;1.93;;
3689;SDS011;1861;50.240;8.596;2024-02-26T02:33:59;2.10;;;1.30;;
3689;SDS011;1861;50.240;8.596;2024-02-26T02:36:28;2.83;;;1.40;;
3689;SDS011;1861;50.240;8.596;2024-02-26T02:38:57;4.60;;;3.10;;
3689;SDS011;1861;50.240;8.596;2024-02-26T02:41:25;3.50;;;1.40;;
3689;SDS011;1861;50.240;8.596;2024-02-26T02:43:56;1.67;;;1.27;;
3689;SDS011;1861;50.240;8.596;2024-02-26T02:46:24;1.70;;;1.33;;
3689;SDS011;1861;50.240;8.596;2024-02-26T02:48:52;1.63;;;1.40;;
3689;SDS011;1861;50.240;8.596;2024-02-26T02:51:20;2.70;;;1.70;;
3689;SDS011;1861;50.240;8.596;2024-02-26T02:53:48;5.33;;;3.60;;
3689;SDS011;1861;50.240;8.596;2024-02-26T02:56:18;3.97;;;3.03;;
3689;SDS011;1861;50.240;8.596;2024-02-26T02:58:46;9.57;;;3.10;;
3689;SDS011;1861;50.240;8.596;2024-02-26T03:01:14;8.83;;;5.33;;
3689;SDS011;1861;50.240;8.596;2024-02-26T03:03:43;8.70;;;4.67;;
3689;SDS011;1861;50.240;8.596;2024-02-26T03:06:11;6.10;;;3.20;;
3689;SDS011;1861;50.240;8.596;2024-02-26T03:08:39;4.73;;;2.77;;
3689;SDS011;1861;50.240;8.596;2024-02-26T03:11:12;7.57;;;2.80;;
3689;SDS011;1861;50.240;8.596;2024-02-26T03:13:42;5.53;;;3.40;;
3689;SDS011;1861;50.240;8.596;2024-02-26T03:16:10;5.23;;;3.10;;
3689;SDS011;1861;50.240;8.596;2024-02-26T03:18:39;3.60;;;2.10;;
3689;SDS011;1861;50.240;8.596;2024-02-26T03:21:08;7.23;;;2.73;;
3689;SDS011;1861;50.240;8.596;2024-02-26T03:23:36;3.50;;;1.90;;
3689;SDS011;1861;50.240;8.596;2024-02-26T03:26:04;2.50;;;1.80;;
3689;SDS011;1861;50.240;8.596;2024-02-26T03:28:33;1.23;;;1.00;;
3689;SDS011;1861;50.240;8.596;2024-02-26T03:31:02;1.30;;;1.20;;
3689;SDS011;1861;50.240;8.596;2024-02-26T03:33:31;1.97;;;1.13;;
3689;SDS011;1861;50.240;8.596;2024-02-26T03:35:59;2.03;;;1.50;;
3689;SDS011;1861;50.240;8.596;2024-02-26T03:38:28;2.00;;;1.20;;
3689;SDS011;1861;50.240;8.596;2024-02-26T03:40:56;2.00;;;1.10;;
3689;SDS011;1861;50.240;8.596;2024-02-26T03:43:24;2.90;;;1.30;;
3689;SDS011;1861;50.240;8.596;2024-02-26T03:45:53;2.73;;;1.33;;
3689;SDS011;1861;50.240;8.596;2024-02-26T03:48:22;2.47;;;1.10;;
3689;SDS011;1861;50.240;8.596;2024-02-26T03:50:50;1.50;;;1.30;;
3689;SDS011;1861;50.240;8.596;2024-02-26T03:53:19;1.20;;;1.10;;
3689;SDS011;1861;50.240;8.596;2024-02-26T03:55:47;2.57;;;1.67;;
3689;SDS011;1861;50.240;8.596;2024-02-26T03:58:15;1.67;;;1.20;;
3689;SDS011;1861;50.240;8.596;2024-02-26T04:00:43;1.23;;;0.97;;
3689;SDS011;1861;50.240;8.596;2024-02-26T04:03:14;1.00;;;0.90;;
3689;SDS011;1861;50.240;8.596;2024-02-26T04:05:43;1.27;;;1.17;;
3689;SDS011;1861;50.240;8.596;2024-02-26T04:08:12;1.00;;;0.90;;
3689;SDS011;1861;50.240;8.596;2024-02-26T04:10:40;1.20;;;1.10;;
3689;SDS011;1861;50.240;8.596;2024-02-26T04:13:08;1.30;;;1.10;;
3689;SDS011;1861;50.240;8.596;2024-02-26T04:15:36;1.20;;;1.00;;
3689;SDS011;1861;50.240;8.596;2024-02-26T04:18:05;1.63;;;0.90;;
3689;SDS011;1861;50.240;8.596;2024-02-26T04:20:33;3.13;;;1.00;;
3689;SDS011;1861;50.240;8.596;2024-02-26T04:23:03;3.83;;;1.00;;
3689;SDS011;1861;50.240;8.596;2024-02-26T04:25:31;2.37;;;0.90;;
3689;SDS011;1861;50.240;8.596;2024-02-26T04:27:59;1.20;;;1.10;;
3689;SDS011;1861;50.240;8.596;2024-02-26T04:30:28;1.00;;;0.90;;
3689;SDS011;1861;50.240;8.596;2024-02-26T04:32:56;1.40;;;0.90;;
3689;SDS011;1861;50.240;8.596;2024-02-26T04:35:24;1.10;;;0.97;;
3689;SDS011;1861;50.240;8.596;2024-02-26T04:37:52;1.97;;;1.20;;
3689;SDS011;1861;50.240;8.596;2024-02-26T04:40:22;2.57;;;1.30;;
3689;SDS011;1861;50.240;8.596;2024-02-26T04:42:50;3.13;;;1.20;;
3689;SDS011;1861;50.240;8.596;2024-02-26T04:45:18;1.93;;;1.13;;
3689;SDS011;1861;50.240;8.596;2024-02-26T04:47:46;2.50;;;1.13;;
3689;SDS011;1861;50.240;8.596;2024-02-26T04:50:14;1.30;;;1.20;;
3689;SDS011;1861;50.240;8.596;2024-02-26T04:52:43;1.97;;;1.80;;
3689;SDS011;1861;50.240;8.596;2024-02-26T04:55:11;1.37;;;1.27;;
3689;SDS011;1861;50.240;8.596;2024-02-26T04:57:40;2.07;;;1.40;;
3689;SDS011;1861;50.240;8.596;2024-02-26T05:00:09;1.40;;;1.30;;
3689;SDS011;1861;50.240;8.596;2024-02-26T05:02:38;1.93;;;1.23;;
3689;SDS011;1861;50.240;8.596;2024-02-26T05:05:07;2.50;;;1.20;;
3689;SDS011;1861;50.240;8.596;2024-02-26T05:07:39;1.67;;;1.30;;
3689;SDS011;1861;50.240;8.596;2024-02-26T05:10:07;1.63;;;1.40;;
3689;SDS011;1861;50.240;8.596;2024-02-26T05:12:36;2.53;;;1.63;;
3689;SDS011;1861;50.240;8.596;2024-02-26T05:15:06;1.77;;;1.53;;
3689;SDS011;1861;50.240;8.596;2024-02-26T05:17:34;2.10;;;1.00;;
3689;SDS011;1861;50.240;8.596;2024-02-26T05:20:03;2.30;;;1.43;;
3689;SDS011;1861;50.240;8.596;2024-02-26T05:22:34;1.30;;;1.20;;
3689;SDS011;1861;50.240;8.596;2024-02-26T05:25:02;1.40;;;1.17;;
3689;SDS011;1861;50.240;8.596;2024-02-26T05:27:31;1.03;;;0.93;;
3689;SDS011;1861;50.240;8.596;2024-02-26T05:29:59;2.33;;;1.13;;
3689;SDS011;1861;50.240;8.596;2024-02-26T05:32:29;2.40;;;1.53;;
3689;SDS011;1861;50.240;8.596;2024-02-26T05:34:57;3.37;;;1.20;;
3689;SDS011;1861;50.240;8.596;2024-02-26T05:37:25;2.20;;;1.20;;
3689;SDS011;1861;50.240;8.596;2024-02-26T05:39:53;1.87;;;1.30;;
3689;SDS011;1861;50.240;8.596;2024-02-26T05:42:21;1.63;;;1.47;;
3689;SDS011;1861;50.240;8.596;2024-02-26T05:44:49;1.23;;;1.13;;
3689;SDS011;1861;50.240;8.596;2024-02-26T05:47:18;1.83;;;1.57;;
3689;SDS011;1861;50.240;8.596;2024-02-26T05:49:47;1.47;;;1.33;;
3689;SDS011;1861;50.240;8.596;2024-02-26T05:52:15;1.50;;;1.40;;
3689;SDS011;1861;50.240;8.596;2024-02-26T05:54:43;1.43;;;1.33;;
3689;SDS011;1861;50.240;8.596;2024-02-26T05:57:12;2.00;;;1.43;;
3689;SDS011;1861;50.240;8.596;2024-02-26T05:59:40;1.63;;;1.53;;
3689;SDS011;1861;50.240;8.596;2024-02-26T06:02:08;3.30;;;1.67;;
3689;SDS011;1861;50.240;8.596;2024-02-26T06:04:36;1.83;;;1.60;;
3689;SDS011;1861;50.240;8.596;2024-02-26T06:07:06;1.83;;;1.73;;
3689;SDS011;1861;50.240;8.596;2024-02-26T06:09:34;3.77;;;2.63;;
3689;SDS011;1861;50.240;8.596;2024-02-26T06:12:03;10.20;;;3.87;;
3689;SDS011;1861;50.240;8.596;2024-02-26T06:14:31;3.63;;;2.53;;
3689;SDS011;1861;50.240;8.596;2024-02-26T06:16:59;3.57;;;2.37;;
3689;SDS011;1861;50.240;8.596;2024-02-26T06:19:27;4.07;;;2.50;;
3689;SDS011;1861;50.240;8.596;2024-02-26T06:21:56;4.03;;;1.70;;
3689;SDS011;1861;50.240;8.596;2024-02-26T06:24:25;3.50;;;2.50;;
3689;SDS011;1861;50.240;8.596;2024-02-26T06:26:54;8.23;;;2.40;;
3689;SDS011;1861;50.240;8.596;2024-02-26T06:29:22;2.50;;;2.20;;
3689;SDS011;1861;50.240;8.596;2024-02-26T06:31:51;4.33;;;2.40;;
3689;SDS011;1861;50.240;8.596;2024-02-26T06:34:19;2.60;;;2.00;;
3689;SDS011;1861;50.240;8.596;2024-02-26T06:36:47;1.97;;;1.80;;
3689;SDS011;1861;50.240;8.596;2024-02-26T06:39:15;4.87;;;1.93;;
3689;SDS011;1861;50.240;8.596;2024-02-26T06:41:45;6.73;;;2.20;;
3689;SDS011;1861;50.240;8.596;2024-02-26T06:44:15;1.60;;;1.50;;
3689;SDS011;1861;50.240;8.596;2024-02-26T06:46:43;1.70;;;1.50;;
3689;SDS011;1861;50.240;8.596;2024-02-26T06:49:11;5.00;;;1.70;;
3689;SDS011;1861;50.240;8.596;2024-02-26T06:51:40;5.33;;;1.80;;
3689;SDS011;1861;50.240;8.596;2024-02-26T06:54:08;3.53;;;2.00;;
3689;SDS011;1861;50.240;8.596;2024-02-26T06:56:36;3.47;;;2.37;;
3689;SDS011;1861;50.240;8.596;2024-02-26T06:59:06;3.17;;;2.30;;
3689;SDS011;1861;50.240;8.596;2024-02-26T07:01:34;2.67;;;2.00;;
3689;SDS011;1861;50.240;8.596;2024-02-26T07:04:02;4.23;;;2.10;;
3689;SDS011;1861;50.240;8.596;2024-02-26T07:06:30;3.67;;;2.33;;
3689;SDS011;1861;50.240;8.596;2024-02-26T07:08:59;4.03;;;3.03;;
3689;SDS011;1861;50.240;8.596;2024-02-26T07:11:27;4.50;;;2.30;;
3689;SDS011;1861;50.240;8.596;2024-02-26T07:13:55;2.03;;;1.83;;
3689;SDS011;1861;50.240;8.596;2024-02-26T07:16:25;3.30;;;1.90;;
3689;SDS011;1861;50.240;8.596;2024-02-26T07:18:53;2.53;;;2.30;;
3689;SDS011;1861;50.240;8.596;2024-02-26T07:21:21;2.27;;;2.07;;
3689;SDS011;1861;50.240;8.596;2024-02-26T07:23:50;3.70;;;2.60;;
3689;SDS011;1861;50.240;8.596;2024-02-26T07:26:19;3.70;;;2.10;;
3689;SDS011;1861;50.240;8.596;2024-02-26T07:28:47;2.77;;;2.33;;
3689;SDS011;1861;50.240;8.596;2024-02-26T07:31:15;2.70;;;1.93;;
3689;SDS011;1861;50.240;8.596;2024-02-26T07:33:46;6.10;;;2.20;;
3689;SDS011;1861;50.240;8.596;2024-02-26T07:36:15;3.63;;;2.20;;
3689;SDS011;1861;50.240;8.596;2024-02-26T07:38:43;3.63;;;1.67;;
3689;SDS011;1861;50.240;8.596;2024-02-26T07:41:13;2.60;;;2.10;;
3689;SDS011;1861;50.240;8.596;2024-02-26T07:43:42;4.37;;;2.10;;
3689;SDS011;1861;50.240;8.596;2024-02-26T07:46:10;2.63;;;1.63;;
3689;SDS011;1861;50.240;8.596;2024-02-26T07:48:39;2.10;;;1.90;;
3689;SDS011;1861;50.240;8.596;2024-02-26T07:51:11;3.93;;;1.70;;
3689;SDS011;1861;50.240;8.596;2024-02-26T07:53:40;2.20;;;2.00;;
3689;SDS011;1861;50.240;8.596;2024-02-26T07:56:09;8.67;;;2.37;;
3689;SDS011;1861;50.240;8.596;2024-02-26T07:58:37;2.50;;;1.83;;
3689;SDS011;1861;50.240;8.596;2024-02-26T08:01:05;3.63;;;2.07;;
3689;SDS011;1861;50.240;8.596;2024-02-26T08:03:33;3.13;;;2.10;;
3689;SDS011;1861;50.240;8.596;2024-02-26T08:06:02;2.70;;;1.80;;
3689;SDS011;1861;50.240;8.596;2024-02-26T08:08:31;3.90;;;1.70;;
3689;SDS011;1861;50.240;8.596;2024-02-26T08:10:59;3.03;;;2.50;;
3689;SDS011;1861;50.240;8.596;2024-02-26T08:13:28;3.20;;;2.00;;
3689;SDS011;1861;50.240;8.596;2024-02-26T08:15:56;4.50;;;2.10;;
3689;SDS011;1861;50.240;8.596;2024-02-26T08:18:25;1.70;;;1.57;;
3689;SDS011;1861;50.240;8.596;2024-02-26T08:20:53;2.33;;;2.13;;
3689;SDS011;1861;50.240;8.596;2024-02-26T08:23:22;5.20;;;2.10;;
3689;SDS011;1861;50.240;8.596;2024-02-26T08:25:51;2.03;;;1.83;;
3689;SDS011;1861;50.240;8.596;2024-02-26T08:28:19;3.53;;;1.87;;
3689;SDS011;1861;50.240;8.596;2024-02-26T08:30:47;5.30;;;1.80;;
3689;SDS011;1861;50.240;8.596;2024-02-26T08:33:16;1.90;;;1.77;;
3689;SDS011;1861;50.240;8.596;2024-02-26T08:35:44;4.70;;;1.83;;
3689;SDS011;1861;50.240;8.596;2024-02-26T08:38:12;2.03;;;1.80;;
3689;SDS011;1861;50.240;8.596;2024-02-26T08:40:41;2.80;;;2.23;;
3689;SDS011;1861;50.240;8.596;2024-02-26T08:43:11;3.03;;;2.10;;
3689;SDS011;1861;50.240;8.596;2024-02-26T08:45:39;4.00;;;2.30;;
3689;SDS011;1861;50.240;8.596;2024-02-26T08:48:07;5.00;;;2.40;;
3689;SDS011;1861;50.240;8.596;2024-02-26T08:50:36;3.47;;;2.33;;
3689;SDS011;1861;50.240;8.596;2024-02-26T08:53:04;3.70;;;2.30;;
3689;SDS011;1861;50.240;8.596;2024-02-26T08:55:33;13.17;;;2.87;;
3689;SDS011;1861;50.240;8.596;2024-02-26T08:58:01;4.90;;;2.47;;
3689;SDS011;1861;50.240;8.596;2024-02-26T09:00:31;3.87;;;2.47;;
3689;SDS011;1861;50.240;8.596;2024-02-26T09:02:59;4.30;;;2.30;;
3689;SDS011;1861;50.240;8.596;2024-02-26T09:05:31;3.10;;;2.57;;
3689;SDS011;1861;50.240;8.596;2024-02-26T09:07:59;4.70;;;2.60;;
3689;SDS011;1861;50.240;8.596;2024-02-26T09:10:27;3.13;;;2.40;;
3689;SDS011;1861;50.240;8.596;2024-02-26T09:12:55;2.97;;;2.10;;
3689;SDS011;1861;50.240;8.596;2024-02-26T09:15:23;4.37;;;2.70;;
3689;SDS011;1861;50.240;8.596;2024-02-26T09:17:53;2.63;;;2.40;;
3689;SDS011;1861;50.240;8.596;2024-02-26T09:20:22;3.60;;;2.67;;
3689;SDS011;1861;50.240;8.596;2024-02-26T09:22:50;4.10;;;2.43;;
3689;SDS011;1861;50.240;8.596;2024-02-26T09:25:19;3.27;;;2.70;;
3689;SDS011;1861;50.240;8.596;2024-02-26T09:27:47;6.40;;;2.57;;
3689;SDS011;1861;50.240;8.596;2024-02-26T09:30:16;3.67;;;2.40;;
3689;SDS011;1861;50.240;8.596;2024-02-26T09:32:46;4.73;;;1.80;;
3689;SDS011;1861;50.240;8.596;2024-02-26T09:35:16;2.90;;;2.03;;
3689;SDS011;1861;50.240;8.596;2024-02-26T09:37:44;3.10;;;2.60;;
3689;SDS011;1861;50.240;8.596;2024-02-26T09:40:12;5.30;;;2.73;;
3689;SDS011;1861;50.240;8.596;2024-02-26T09:42:42;6.20;;;2.87;;
3689;SDS011;1861;50.240;8.596;2024-02-26T09:45:12;5.27;;;2.40;;
3689;SDS011;1861;50.240;8.596;2024-02-26T09:47:46;4.20;;;2.50;;
3689;SDS011;1861;50.240;8.596;2024-02-26T09:50:17;3.07;;;2.47;;
3689;SDS011;1861;50.240;8.596;2024-02-26T09:52:49;7.30;;;3.53;;
3689;SDS011;1861;50.240;8.596;2024-02-26T09:55:18;3.93;;;2.67;;
3689;SDS011;1861;50.240;8.596;2024-02-26T09:57:46;8.67;;;3.10;;
3689;SDS011;1861;50.240;8.596;2024-02-26T10:00:17;2.83;;;2.27;;
3689;SDS011;1861;50.240;8.596;2024-02-26T10:02:46;3.90;;;2.30;;
3689;SDS011;1861;50.240;8.596;2024-02-26T10:05:17;12.83;;;2.97;;
3689;SDS011;1861;50.240;8.596;2024-02-26T10:07:46;4.37;;;2.57;;
3689;SDS011;1861;50.240;8.596;2024-02-26T10:10:14;5.00;;;2.90;;
3689;SDS011;1861;50.240;8.596;2024-02-26T10:12:43;6.17;;;2.37;;
3689;SDS011;1861;50.240;8.596;2024-02-26T10:15:12;4.67;;;3.03;;
3689;SDS011;1861;50.240;8.596;2024-02-26T10:17:40;3.83;;;2.10;;
3689;SDS011;1861;50.240;8.596;2024-02-26T10:20:12;5.23;;;3.00;;
3689;SDS011;1861;50.240;8.596;2024-02-26T10:22:45;4.97;;;2.60;;
3689;SDS011;1861;50.240;8.596;2024-02-26T10:25:14;4.37;;;2.70;;
3689;SDS011;1861;50.240;8.596;2024-02-26T10:27:42;3.27;;;2.10;;
3689;SDS011;1861;50.240;8.596;2024-02-26T10:30:15;4.50;;;2.70;;
3689;SDS011;1861;50.240;8.596;2024-02-26T10:32:46;3.53;;;2.43;;
3689;SDS011;1861;50.240;8.596;2024-02-26T10:35:15;3.87;;;2.40;;
3689;SDS011;1861;50.240;8.596;2024-02-26T10:37:46;3.70;;;2.80;;
3689;SDS011;1861;50.240;8.596;2024-02-26T10:40:15;5.07;;;2.50;;
3689;SDS011;1861;50.240;8.596;2024-02-26T10:42:44;3.93;;;2.60;;
3689;SDS011;1861;50.240;8.596;2024-02-26T10:45:12;5.10;;;2.50;;
3689;SDS011;1861;50.240;8.596;2024-02-26T10:47:41;2.83;;;2.07;;
3689;SDS011;1861;50.240;8.596;2024-02-26T10:50:09;3.87;;;2.70;;
3689;SDS011;1861;50.240;8.596;2024-02-26T10:52:41;5.23;;;2.50;;
3689;SDS011;1861;50.240;8.596;2024-02-26T10:55:13;6.00;;;2.17;;
3689;SDS011;1861;50.240;8.596;2024-02-26T10:57:45;3.70;;;2.40;;
3689;SDS011;1861;50.240;8.596;2024-02-26T11:00:15;8.53;;;2.80;;
3689;SDS011;1861;50.240;8.596;2024-02-26T11:02:45;2.97;;;1.90;;
3689;SDS011;1861;50.240;8.596;2024-02-26T11:05:15;4.50;;;2.70;;
3689;SDS011;1861;50.240;8.596;2024-02-26T11:07:44;6.87;;;2.23;;
3689;SDS011;1861;50.240;8.596;2024-02-26T11:10:15;4.13;;;2.20;;
3689;SDS011;1861;50.240;8.596;2024-02-26T11:12:44;4.53;;;3.03;;
3689;SDS011;1861;50.240;8.596;2024-02-26T11:15:14;3.57;;;2.60;;
3689;SDS011;1861;50.240;8.596;2024-02-26T11:17:42;3.73;;;2.03;;
3689;SDS011;1861;50.240;8.596;2024-02-26T11:20:13;6.67;;;3.13;;
3689;SDS011;1861;50.240;8.596;2024-02-26T11:22:42;3.87;;;2.30;;
3689;SDS011;1861;50.240;8.596;2024-02-26T11:25:10;2.90;;;2.13;;
3689;SDS011;1861;50.240;8.596;2024-02-26T11:27:41;3.77;;;2.40;;
3689;SDS011;1861;50.240;8.596;2024-02-26T11:30:12;3.37;;;2.03;;
3689;SDS011;1861;50.240;8.596;2024-02-26T11:32:43;8.30;;;2.63;;
3689;SDS011;1861;50.240;8.596;2024-02-26T11:35:13;3.23;;;2.63;;
3689;SDS011;1861;50.240;8.596;2024-02-26T11:37:51;3.93;;;2.67;;
3689;SDS011;1861;50.240;8.596;2024-02-26T11:40:21;4.07;;;3.17;;
3689;SDS011;1861;50.240;8.596;2024-02-26T11:42:52;4.53;;;3.30;;
3689;SDS011;1861;50.240;8.596;2024-02-26T11:48:23;5.70;;;2.80;;
3689;SDS011;1861;50.240;8.596;2024-02-26T11:50:53;3.77;;;2.57;;
3689;SDS011;1861;50.240;8.596;2024-02-26T11:53:22;3.00;;;2.40;;
3689;SDS011;1861;50.240;8.596;2024-02-26T11:58:56;4.03;;;2.03;;
3689;SDS011;1861;50.240;8.596;2024-02-26T12:01:41;3.93;;;3.07;;
3689;SDS011;1861;50.240;8.596;2024-02-26T12:04:12;3.30;;;2.40;;
3689;SDS011;1861;50.240;8.596;2024-02-26T12:06:47;5.27;;;2.60;;
3689;SDS011;1861;50.240;8.596;2024-02-26T12:12:02;3.00;;;2.27;;
3689;SDS011;1861;50.240;8.596;2024-02-26T12:14:34;5.53;;;2.90;;
3689;SDS011;1861;50.240;8.596;2024-02-26T12:17:05;6.90;;;2.70;;
3689;SDS011;1861;50.240;8.596;2024-02-26T12:19:35;5.20;;;2.40;;
3689;SDS011;1861;50.240;8.596;2024-02-26T12:22:09;6.93;;;2.53;;
3689;SDS011;1861;50.240;8.596;2024-02-26T12:24:41;5.23;;;2.70;;
3689;SDS011;1861;50.240;8.596;2024-02-26T12:27:09;4.93;;;3.00;;
3689;SDS011;1861;50.240;8.596;2024-02-26T12:29:39;6.10;;;2.40;;
3689;SDS011;1861;50.240;8.596;2024-02-26T12:32:07;6.20;;;2.93;;
3689;SDS011;1861;50.240;8.596;2024-02-26T12:34:37;3.00;;;2.60;;
3689;SDS011;1861;50.240;8.596;2024-02-26T12:37:05;5.53;;;2.67;;
3689;SDS011;1861;50.240;8.596;2024-02-26T12:39:36;5.70;;;2.50;;
3689;SDS011;1861;50.240;8.596;2024-02-26T12:42:04;4.53;;;2.30;;
3689;SDS011;1861;50.240;8.596;2024-02-26T12:44:33;3.03;;;2.40;;
3689;SDS011;1861;50.240;8.596;2024-02-26T12:47:03;3.97;;;2.50;;
3689;SDS011;1861;50.240;8.596;2024-02-26T12:49:32;3.43;;;2.17;;
3689;SDS011;1861;50.240;8.596;2024-02-26T12:52:00;4.63;;;2.90;;
3689;SDS011;1861;50.240;8.596;2024-02-26T12:54:30;3.37;;;2.53;;
3689;SDS011;1861;50.240;8.596;2024-02-26T12:57:00;2.60;;;2.33;;
3689;SDS011;1861;50.240;8.596;2024-02-26T12:59:30;3.20;;;2.50;;
3689;SDS011;1861;50.240;8.596;2024-02-26T13:01:59;3.57;;;2.60;;
3689;SDS011;1861;50.240;8.596;2024-02-26T13:04:32;2.63;;;2.37;;
3689;SDS011;1861;50.240;8.596;2024-02-26T13:07:02;4.20;;;2.63;;
3689;SDS011;1861;50.240;8.596;2024-02-26T13:09:32;4.40;;;2.70;;
3689;SDS011;1861;50.240;8.596;2024-02-26T13:12:03;2.83;;;2.63;;
3689;SDS011;1861;50.240;8.596;2024-02-26T13:14:33;4.13;;;2.70;;
3689;SDS011;1861;50.240;8.596;2024-02-26T13:17:01;3.60;;;2.50;;
3689;SDS011;1861;50.240;8.596;2024-02-26T13:19:30;4.67;;;2.97;;
3689;SDS011;1861;50.240;8.596;2024-02-26T13:22:04;4.50;;;2.93;;
3689;SDS011;1861;50.240;8.596;2024-02-26T13:24:34;5.23;;;2.67;;
3689;SDS011;1861;50.240;8.596;2024-02-26T13:27:03;3.63;;;2.83;;
3689;SDS011;1861;50.240;8.596;2024-02-26T13:29:33;3.27;;;2.87;;
3689;SDS011;1861;50.240;8.596;2024-02-26T13:32:01;5.10;;;2.90;;
3689;SDS011;1861;50.240;8.596;2024-02-26T13:34:31;2.97;;;2.40;;
3689;SDS011;1861;50.240;8.596;2024-02-26T13:37:01;4.63;;;2.90;;
3689;SDS011;1861;50.240;8.596;2024-02-26T13:39:31;5.63;;;2.77;;
3689;SDS011;1861;50.240;8.596;2024-02-26T13:42:00;4.03;;;2.13;;
3689;SDS011;1861;50.240;8.596;2024-02-26T13:44:28;3.30;;;2.83;;
3689;SDS011;1861;50.240;8.596;2024-02-26T13:46:56;5.10;;;2.93;;
3689;SDS011;1861;50.240;8.596;2024-02-26T13:49:25;7.80;;;3.17;;
3689;SDS011;1861;50.240;8.596;2024-02-26T13:51:53;6.33;;;2.80;;
3689;SDS011;1861;50.240;8.596;2024-02-26T13:54:21;3.53;;;2.60;;
3689;SDS011;1861;50.240;8.596;2024-02-26T13:56:51;2.50;;;2.30;;
3689;SDS011;1861;50.240;8.596;2024-02-26T13:59:20;4.47;;;2.90;;
3689;SDS011;1861;50.240;8.596;2024-02-26T14:01:48;3.27;;;2.50;;
3689;SDS011;1861;50.240;8.596;2024-02-26T14:04:19;10.73;;;2.87;;
3689;SDS011;1861;50.240;8.596;2024-02-26T14:06:47;4.63;;;2.90;;
3689;SDS011;1861;50.240;8.596;2024-02-26T14:09:15;6.73;;;2.80;;
3689;SDS011;1861;50.240;8.596;2024-02-26T14:11:45;8.40;;;3.43;;
3689;SDS011;1861;50.240;8.596;2024-02-26T14:14:15;4.70;;;2.90;;
3689;SDS011;1861;50.240;8.596;2024-02-26T14:16:44;4.10;;;2.50;;
3689;SDS011;1861;50.240;8.596;2024-02-26T14:19:12;3.80;;;2.53;;
3689;SDS011;1861;50.240;8.596;2024-02-26T14:21:41;8.50;;;4.13;;
3689;SDS011;1861;50.240;8.596;2024-02-26T14:24:09;3.60;;;2.73;;
3689;SDS011;1861;50.240;8.596;2024-02-26T14:26:38;3.53;;;3.00;;
3689;SDS011;1861;50.240;8.596;2024-02-26T14:29:07;5.27;;;2.90;;
3689;SDS011;1861;50.240;8.596;2024-02-26T14:31:37;4.03;;;2.63;;
3689;SDS011;1861;50.240;8.596;2024-02-26T14:34:05;4.10;;;2.83;;
3689;SDS011;1861;50.240;8.596;2024-02-26T14:36:34;4.60;;;2.93;;
3689;SDS011;1861;50.240;8.596;2024-02-26T14:39:02;3.33;;;2.50;;
3689;SDS011;1861;50.240;8.596;2024-02-26T14:41:30;4.20;;;2.60;;
3689;SDS011;1861;50.240;8.596;2024-02-26T14:43:58;4.10;;;2.80;;
3689;SDS011;1861;50.240;8.596;2024-02-26T14:46:27;3.57;;;2.70;;
3689;SDS011;1861;50.240;8.596;2024-02-26T14:48:56;3.97;;;2.67;;
3689;SDS011;1861;50.240;8.596;2024-02-26T14:51:25;3.43;;;2.20;;
3689;SDS011;1861;50.240;8.596;2024-02-26T14:53:53;3.30;;;2.83;;
3689;SDS011;1861;50.240;8.596;2024-02-26T14:56:22;3.87;;;2.30;;
3689;SDS011;1861;50.240;8.596;2024-02-26T14:58:50;3.33;;;2.67;;
3689;SDS011;1861;50.240;8.596;2024-02-26T15:01:18;4.80;;;3.00;;
3689;SDS011;1861;50.240;8.596;2024-02-26T15:03:46;4.07;;;2.83;;
3689;SDS011;1861;50.240;8.596;2024-02-26T15:06:16;4.93;;;2.50;;
3689;SDS011;1861;50.240;8.596;2024-02-26T15:08:46;5.13;;;2.47;;
3689;SDS011;1861;50.240;8.596;2024-02-26T15:11:15;5.13;;;2.50;;
3689;SDS011;1861;50.240;8.596;2024-02-26T15:13:43;4.43;;;2.50;;
3689;SDS011;1861;50.240;8.596;2024-02-26T15:16:16;3.20;;;2.10;;
3689;SDS011;1861;50.240;8.596;2024-02-26T15:18:46;2.20;;;1.97;;
3689;SDS011;1861;50.240;8.596;2024-02-26T15:21:16;3.20;;;2.37;;
3689;SDS011;1861;50.240;8.596;2024-02-26T15:23:45;3.93;;;1.93;;
3689;SDS011;1861;50.240;8.596;2024-02-26T15:26:30;2.17;;;2.00;;
3689;SDS011;1861;50.240;8.596;2024-02-26T15:28:58;4.30;;;2.60;;
3689;SDS011;1861;50.240;8.596;2024-02-26T15:31:26;3.10;;;2.07;;
3689;SDS011;1861;50.240;8.596;2024-02-26T15:33:55;2.60;;;2.07;;